sensor_id;sensor_type;location;lat;lon;timestamp;temperature;humidity
4054;DHT22;2042;47.956;9.222;2024-01-11T00:00:14;-3.90;34.20
4054;DHT22;2042;47.956;9.222;2024-01-11T00:02:39;-3.90;34.30
4054;DHT22;2042;47.956;9.222;2024-01-11T00:05:06;-4.00;34.10
4054;DHT22;2042;47.956;9.222;2024-01-11T00:07:32;-4.00;34.00
4054;DHT22;2042;47.956;9.222;2024-01-11T00:09:58;-4.00;34.00
4054;DHT22;2042;47.956;9.222;2024-01-11T00:12:25;-4.00;34.10
4054;DHT22;2042;47.956;9.222;2024-01-11T00:14:51;-4.00;34.10
4054;DHT22;2042;47.956;9.222;2024-01-11T00:17:16;-4.00;34.10
4054;DHT22;2042;47.956;9.222;2024-01-11T00:19:42;-4.10;34.00
4054;DHT22;2042;47.956;9.222;2024-01-11T00:22:08;-4.10;33.90
4054;DHT22;2042;47.956;9.222;2024-01-11T00:24:33;-4.20;33.70
4054;DHT22;2042;47.956;9.222;2024-01-11T00:26:59;-4.20;33.70
4054;DHT22;2042;47.956;9.222;2024-01-11T00:29:24;-4.20;33.70
4054;DHT22;2042;47.956;9.222;2024-01-11T00:31:50;-4.20;33.70
4054;DHT22;2042;47.956;9.222;2024-01-11T00:34:16;-4.30;33.50
4054;DHT22;2042;47.956;9.222;2024-01-11T00:36:41;-4.30;33.60
4054;DHT22;2042;47.956;9.222;2024-01-11T00:39:07;-4.30;33.60
4054;DHT22;2042;47.956;9.222;2024-01-11T00:41:32;-4.30;33.60
4054;DHT22;2042;47.956;9.222;2024-01-11T00:43:58;-4.30;34.30
4054;DHT22;2042;47.956;9.222;2024-01-11T00:46:24;-4.40;33.50
4054;DHT22;2042;47.956;9.222;2024-01-11T00:48:49;-4.40;33.50
4054;DHT22;2042;47.956;9.222;2024-01-11T00:51:15;-4.40;33.60
4054;DHT22;2042;47.956;9.222;2024-01-11T00:53:41;-4.30;33.80
4054;DHT22;2042;47.956;9.222;2024-01-11T00:56:15;-4.30;33.70
4054;DHT22;2042;47.956;9.222;2024-01-11T00:58:42;-4.30;33.70
4054;DHT22;2042;47.956;9.222;2024-01-11T01:01:09;-4.30;33.70
4054;DHT22;2042;47.956;9.222;2024-01-11T01:03:35;-4.40;33.60
4054;DHT22;2042;47.956;9.222;2024-01-11T01:06:01;-4.40;33.60
4054;DHT22;2042;47.956;9.222;2024-01-11T01:08:27;-4.40;33.60
4054;DHT22;2042;47.956;9.222;2024-01-11T01:10:53;-4.40;33.60
4054;DHT22;2042;47.956;9.222;2024-01-11T01:13:19;-4.40;33.60
4054;DHT22;2042;47.956;9.222;2024-01-11T01:15:44;-4.40;33.50
4054;DHT22;2042;47.956;9.222;2024-01-11T01:18:10;-4.50;33.40
4054;DHT22;2042;47.956;9.222;2024-01-11T01:20:36;-4.50;33.30
4054;DHT22;2042;47.956;9.222;2024-01-11T01:23:02;-4.60;33.10
4054;DHT22;2042;47.956;9.222;2024-01-11T01:25:27;-4.60;33.10
4054;DHT22;2042;47.956;9.222;2024-01-11T01:27:53;-4.60;33.10
4054;DHT22;2042;47.956;9.222;2024-01-11T01:30:19;-4.70;32.90
4054;DHT22;2042;47.956;9.222;2024-01-11T01:32:45;-4.80;32.60
4054;DHT22;2042;47.956;9.222;2024-01-11T01:35:11;-4.80;32.50
4054;DHT22;2042;47.956;9.222;2024-01-11T01:37:36;-4.90;32.40
4054;DHT22;2042;47.956;9.222;2024-01-11T01:40:02;-4.90;32.50
4054;DHT22;2042;47.956;9.222;2024-01-11T01:42:28;-4.90;32.50
4054;DHT22;2042;47.956;9.222;2024-01-11T01:44:54;-4.90;32.50
4054;DHT22;2042;47.956;9.222;2024-01-11T01:47:19;-5.00;32.40
4054;DHT22;2042;47.956;9.222;2024-01-11T01:49:48;-5.00;32.40
4054;DHT22;2042;47.956;9.222;2024-01-11T01:52:15;-5.00;33.00
4054;DHT22;2042;47.956;9.222;2024-01-11T01:54:42;-4.90;32.50
4054;DHT22;2042;47.956;9.222;2024-01-11T01:57:09;-5.00;32.30
4054;DHT22;2042;47.956;9.222;2024-01-11T01:59:35;-5.00;32.20
4054;DHT22;2042;47.956;9.222;2024-01-11T02:02:04;-5.10;31.90
4054;DHT22;2042;47.956;9.222;2024-01-11T02:04:30;-5.10;31.90
4054;DHT22;2042;47.956;9.222;2024-01-11T02:06:57;-5.20;31.60
4054;DHT22;2042;47.956;9.222;2024-01-11T02:09:24;-5.40;31.00
4054;DHT22;2042;47.956;9.222;2024-01-11T02:11:52;-5.50;30.50
4054;DHT22;2042;47.956;9.222;2024-01-11T02:14:19;-5.70;30.00
4054;DHT22;2042;47.956;9.222;2024-01-11T02:16:45;-5.80;29.80
4054;DHT22;2042;47.956;9.222;2024-01-11T02:19:16;-5.90;29.30
4054;DHT22;2042;47.956;9.222;2024-01-11T02:21:43;-6.00;28.90
4054;DHT22;2042;47.956;9.222;2024-01-11T02:24:09;-6.10;28.70
4054;DHT22;2042;47.956;9.222;2024-01-11T02:26:35;-6.20;28.60
4054;DHT22;2042;47.956;9.222;2024-01-11T02:29:01;-6.20;28.50
4054;DHT22;2042;47.956;9.222;2024-01-11T02:31:27;-6.30;28.40
4054;DHT22;2042;47.956;9.222;2024-01-11T02:33:58;-6.40;28.20
4054;DHT22;2042;47.956;9.222;2024-01-11T02:36:25;-6.50;28.20
4054;DHT22;2042;47.956;9.222;2024-01-11T02:38:51;-6.50;28.10
4054;DHT22;2042;47.956;9.222;2024-01-11T02:41:18;-6.50;28.20
4054;DHT22;2042;47.956;9.222;2024-01-11T02:43:47;-6.50;28.10
4054;DHT22;2042;47.956;9.222;2024-01-11T02:46:14;-6.60;28.00
4054;DHT22;2042;47.956;9.222;2024-01-11T02:48:41;-6.60;28.00
4054;DHT22;2042;47.956;9.222;2024-01-11T02:51:06;-6.60;27.90
4054;DHT22;2042;47.956;9.222;2024-01-11T02:53:32;-6.70;27.50
4054;DHT22;2042;47.956;9.222;2024-01-11T02:56:00;-6.70;27.10
4054;DHT22;2042;47.956;9.222;2024-01-11T02:58:26;-6.80;26.90
4054;DHT22;2042;47.956;9.222;2024-01-11T03:00:51;-6.80;26.90
4054;DHT22;2042;47.956;9.222;2024-01-11T03:03:17;-6.80;26.90
4054;DHT22;2042;47.956;9.222;2024-01-11T03:05:43;-6.80;26.70
4054;DHT22;2042;47.956;9.222;2024-01-11T03:08:09;-6.90;26.30
4054;DHT22;2042;47.956;9.222;2024-01-11T03:10:37;-6.90;26.20
4054;DHT22;2042;47.956;9.222;2024-01-11T03:13:05;-7.00;25.90
4054;DHT22;2042;47.956;9.222;2024-01-11T03:15:31;-7.00;25.80
4054;DHT22;2042;47.956;9.222;2024-01-11T03:17:57;-7.00;25.70
4054;DHT22;2042;47.956;9.222;2024-01-11T03:20:22;-7.00;25.70
4054;DHT22;2042;47.956;9.222;2024-01-11T03:22:50;-7.00;25.90
4054;DHT22;2042;47.956;9.222;2024-01-11T03:25:17;-7.00;25.70
4054;DHT22;2042;47.956;9.222;2024-01-11T03:27:43;-7.00;25.30
4054;DHT22;2042;47.956;9.222;2024-01-11T03:30:09;-7.10;24.90
4054;DHT22;2042;47.956;9.222;2024-01-11T03:32:35;-7.20;24.40
4054;DHT22;2042;47.956;9.222;2024-01-11T03:35:00;-7.30;24.10
4054;DHT22;2042;47.956;9.222;2024-01-11T03:37:26;-7.30;24.00
4054;DHT22;2042;47.956;9.222;2024-01-11T03:39:51;-7.40;23.80
4054;DHT22;2042;47.956;9.222;2024-01-11T03:42:17;-7.40;23.50
4054;DHT22;2042;47.956;9.222;2024-01-11T03:44:43;-7.50;23.30
4054;DHT22;2042;47.956;9.222;2024-01-11T03:47:08;-7.50;23.30
4054;DHT22;2042;47.956;9.222;2024-01-11T03:49:34;-7.50;22.90
4054;DHT22;2042;47.956;9.222;2024-01-11T03:52:00;-7.60;22.80
4054;DHT22;2042;47.956;9.222;2024-01-11T03:54:25;-7.60;22.90
4054;DHT22;2042;47.956;9.222;2024-01-11T03:56:51;-7.50;23.20
4054;DHT22;2042;47.956;9.222;2024-01-11T03:59:16;-7.40;23.40
4054;DHT22;2042;47.956;9.222;2024-01-11T04:01:42;-7.40;23.40
4054;DHT22;2042;47.956;9.222;2024-01-11T04:04:08;-7.40;23.40
4054;DHT22;2042;47.956;9.222;2024-01-11T04:06:34;-7.30;23.40
4054;DHT22;2042;47.956;9.222;2024-01-11T04:09:00;-7.30;23.30
4054;DHT22;2042;47.956;9.222;2024-01-11T04:11:29;-7.30;23.20
4054;DHT22;2042;47.956;9.222;2024-01-11T04:13:55;-7.30;23.20
4054;DHT22;2042;47.956;9.222;2024-01-11T04:16:21;-7.30;23.10
4054;DHT22;2042;47.956;9.222;2024-01-11T04:18:47;-7.30;23.30
4054;DHT22;2042;47.956;9.222;2024-01-11T04:21:22;-7.20;23.50
4054;DHT22;2042;47.956;9.222;2024-01-11T04:23:48;-7.20;23.50
4054;DHT22;2042;47.956;9.222;2024-01-11T04:26:13;-7.10;23.70
4054;DHT22;2042;47.956;9.222;2024-01-11T04:28:39;-7.10;23.70
4054;DHT22;2042;47.956;9.222;2024-01-11T04:31:05;-7.10;23.70
4054;DHT22;2042;47.956;9.222;2024-01-11T04:33:30;-7.00;24.00
4054;DHT22;2042;47.956;9.222;2024-01-11T04:35:56;-6.90;24.20
4054;DHT22;2042;47.956;9.222;2024-01-11T04:38:21;-6.90;24.30
4054;DHT22;2042;47.956;9.222;2024-01-11T04:40:47;-6.80;24.50
4054;DHT22;2042;47.956;9.222;2024-01-11T04:43:12;-6.80;24.60
4054;DHT22;2042;47.956;9.222;2024-01-11T04:45:38;-6.70;24.60
4054;DHT22;2042;47.956;9.222;2024-01-11T04:48:04;-6.70;24.60
4054;DHT22;2042;47.956;9.222;2024-01-11T04:50:30;-6.60;24.90
4054;DHT22;2042;47.956;9.222;2024-01-11T04:52:55;-6.50;25.10
4054;DHT22;2042;47.956;9.222;2024-01-11T04:55:21;-6.50;25.10
4054;DHT22;2042;47.956;9.222;2024-01-11T04:57:46;-6.50;25.10
4054;DHT22;2042;47.956;9.222;2024-01-11T05:00:13;-6.50;25.10
4054;DHT22;2042;47.956;9.222;2024-01-11T05:02:38;-6.40;25.30
4054;DHT22;2042;47.956;9.222;2024-01-11T05:05:04;-6.40;25.40
4054;DHT22;2042;47.956;9.222;2024-01-11T05:07:30;-6.30;25.60
4054;DHT22;2042;47.956;9.222;2024-01-11T05:09:56;-6.30;25.70
4054;DHT22;2042;47.956;9.222;2024-01-11T05:12:22;-6.20;25.80
4054;DHT22;2042;47.956;9.222;2024-01-11T05:14:47;-6.20;25.80
4054;DHT22;2042;47.956;9.222;2024-01-11T05:17:13;-6.20;26.00
4054;DHT22;2042;47.956;9.222;2024-01-11T05:19:38;-6.10;26.10
4054;DHT22;2042;47.956;9.222;2024-01-11T05:22:04;-6.10;26.20
4054;DHT22;2042;47.956;9.222;2024-01-11T05:24:30;-6.10;26.00
4054;DHT22;2042;47.956;9.222;2024-01-11T05:26:55;-6.10;26.00
4054;DHT22;2042;47.956;9.222;2024-01-11T05:29:21;-6.10;26.00
4054;DHT22;2042;47.956;9.222;2024-01-11T05:31:46;-6.00;26.60
4054;DHT22;2042;47.956;9.222;2024-01-11T05:34:12;-6.10;25.80
4054;DHT22;2042;47.956;9.222;2024-01-11T05:36:38;-6.10;25.60
4054;DHT22;2042;47.956;9.222;2024-01-11T05:39:04;-6.10;25.70
4054;DHT22;2042;47.956;9.222;2024-01-11T05:41:29;-6.10;25.90
4054;DHT22;2042;47.956;9.222;2024-01-11T05:43:55;-6.00;26.20
4054;DHT22;2042;47.956;9.222;2024-01-11T05:46:20;-6.00;26.10
4054;DHT22;2042;47.956;9.222;2024-01-11T05:48:46;-6.00;26.20
4054;DHT22;2042;47.956;9.222;2024-01-11T05:51:12;-6.00;26.20
4054;DHT22;2042;47.956;9.222;2024-01-11T05:53:37;-6.00;26.20
4054;DHT22;2042;47.956;9.222;2024-01-11T05:56:10;-6.00;26.30
4054;DHT22;2042;47.956;9.222;2024-01-11T05:58:36;-5.90;26.50
4054;DHT22;2042;47.956;9.222;2024-01-11T06:01:04;-6.00;26.00
4054;DHT22;2042;47.956;9.222;2024-01-11T06:03:30;-6.00;25.90
4054;DHT22;2042;47.956;9.222;2024-01-11T06:06:00;-6.00;26.00
4054;DHT22;2042;47.956;9.222;2024-01-11T06:08:26;-6.00;26.30
4054;DHT22;2042;47.956;9.222;2024-01-11T06:10:52;-5.90;26.50
4054;DHT22;2042;47.956;9.222;2024-01-11T06:13:17;-5.90;26.50
4054;DHT22;2042;47.956;9.222;2024-01-11T06:15:44;-5.90;26.40
4054;DHT22;2042;47.956;9.222;2024-01-11T06:18:09;-6.00;26.10
4054;DHT22;2042;47.956;9.222;2024-01-11T06:20:35;-6.00;26.10
4054;DHT22;2042;47.956;9.222;2024-01-11T06:23:01;-6.00;25.90
4054;DHT22;2042;47.956;9.222;2024-01-11T06:25:27;-6.10;25.80
4054;DHT22;2042;47.956;9.222;2024-01-11T06:27:53;-6.10;25.70
4054;DHT22;2042;47.956;9.222;2024-01-11T06:30:18;-6.10;26.10
4054;DHT22;2042;47.956;9.222;2024-01-11T06:32:44;-6.10;26.20
4054;DHT22;2042;47.956;9.222;2024-01-11T06:35:10;-6.00;26.50
4054;DHT22;2042;47.956;9.222;2024-01-11T06:37:35;-6.00;26.60
4054;DHT22;2042;47.956;9.222;2024-01-11T06:40:01;-6.00;26.80
4054;DHT22;2042;47.956;9.222;2024-01-11T06:42:26;-5.90;27.10
4054;DHT22;2042;47.956;9.222;2024-01-11T06:44:52;-5.80;27.50
4054;DHT22;2042;47.956;9.222;2024-01-11T06:47:18;-5.80;27.30
4054;DHT22;2042;47.956;9.222;2024-01-11T06:49:44;-5.90;26.90
4054;DHT22;2042;47.956;9.222;2024-01-11T06:52:09;-5.80;27.10
4054;DHT22;2042;47.956;9.222;2024-01-11T06:54:35;-5.90;27.00
4054;DHT22;2042;47.956;9.222;2024-01-11T06:57:01;-5.80;27.60
4054;DHT22;2042;47.956;9.222;2024-01-11T06:59:26;-5.80;27.20
4054;DHT22;2042;47.956;9.222;2024-01-11T07:01:52;-5.90;27.10
4054;DHT22;2042;47.956;9.222;2024-01-11T07:04:18;-5.90;27.20
4054;DHT22;2042;47.956;9.222;2024-01-11T07:06:43;-5.90;26.80
4054;DHT22;2042;47.956;9.222;2024-01-11T07:09:10;-5.90;26.60
4054;DHT22;2042;47.956;9.222;2024-01-11T07:11:36;-6.00;26.60
4054;DHT22;2042;47.956;9.222;2024-01-11T07:14:02;-6.00;26.40
4054;DHT22;2042;47.956;9.222;2024-01-11T07:16:29;-6.00;26.40
4054;DHT22;2042;47.956;9.222;2024-01-11T07:18:55;-6.10;26.00
4054;DHT22;2042;47.956;9.222;2024-01-11T07:21:24;-6.10;25.90
4054;DHT22;2042;47.956;9.222;2024-01-11T07:23:57;-6.10;26.00
4054;DHT22;2042;47.956;9.222;2024-01-11T07:26:23;-6.20;25.70
4054;DHT22;2042;47.956;9.222;2024-01-11T07:28:49;-6.20;25.70
4054;DHT22;2042;47.956;9.222;2024-01-11T07:31:16;-6.20;25.80
4054;DHT22;2042;47.956;9.222;2024-01-11T07:33:41;-6.10;26.20
4054;DHT22;2042;47.956;9.222;2024-01-11T07:36:07;-6.10;26.40
4054;DHT22;2042;47.956;9.222;2024-01-11T07:38:34;-6.00;26.50
4054;DHT22;2042;47.956;9.222;2024-01-11T07:41:00;-6.00;26.60
4054;DHT22;2042;47.956;9.222;2024-01-11T07:43:27;-5.90;27.00
4054;DHT22;2042;47.956;9.222;2024-01-11T07:45:54;-5.80;27.30
4054;DHT22;2042;47.956;9.222;2024-01-11T07:48:25;-5.80;27.40
4054;DHT22;2042;47.956;9.222;2024-01-11T07:50:50;-5.70;27.60
4054;DHT22;2042;47.956;9.222;2024-01-11T07:53:16;-5.70;27.70
4054;DHT22;2042;47.956;9.222;2024-01-11T07:55:42;-5.60;27.90
4054;DHT22;2042;47.956;9.222;2024-01-11T07:58:08;-5.50;27.90
4054;DHT22;2042;47.956;9.222;2024-01-11T08:00:34;-5.50;28.20
4054;DHT22;2042;47.956;9.222;2024-01-11T08:03:00;-5.40;28.40
4054;DHT22;2042;47.956;9.222;2024-01-11T08:05:25;-5.30;28.30
4054;DHT22;2042;47.956;9.222;2024-01-11T08:07:51;-5.40;28.00
4054;DHT22;2042;47.956;9.222;2024-01-11T08:10:18;-5.40;27.40
4054;DHT22;2042;47.956;9.222;2024-01-11T08:12:43;-5.40;27.60
4054;DHT22;2042;47.956;9.222;2024-01-11T08:15:09;-5.40;27.70
4054;DHT22;2042;47.956;9.222;2024-01-11T08:17:38;-5.30;28.20
4054;DHT22;2042;47.956;9.222;2024-01-11T08:20:05;-5.20;28.80
4054;DHT22;2042;47.956;9.222;2024-01-11T08:22:34;-5.10;29.00
4054;DHT22;2042;47.956;9.222;2024-01-11T08:25:03;-5.00;29.10
4054;DHT22;2042;47.956;9.222;2024-01-11T08:27:31;-5.00;28.70
4054;DHT22;2042;47.956;9.222;2024-01-11T08:29:57;-5.00;28.60
4054;DHT22;2042;47.956;9.222;2024-01-11T08:32:22;-5.10;28.40
4054;DHT22;2042;47.956;9.222;2024-01-11T08:34:48;-5.00;29.00
4054;DHT22;2042;47.956;9.222;2024-01-11T08:37:14;-4.90;29.20
4054;DHT22;2042;47.956;9.222;2024-01-11T08:39:40;-4.70;29.50
4054;DHT22;2042;47.956;9.222;2024-01-11T08:42:06;-4.60;29.80
4054;DHT22;2042;47.956;9.222;2024-01-11T08:44:31;-4.50;30.00
4054;DHT22;2042;47.956;9.222;2024-01-11T08:46:58;-4.40;30.10
4054;DHT22;2042;47.956;9.222;2024-01-11T08:49:25;-4.30;30.40
4054;DHT22;2042;47.956;9.222;2024-01-11T08:51:51;-4.30;30.40
4054;DHT22;2042;47.956;9.222;2024-01-11T08:54:16;-4.20;30.50
4054;DHT22;2042;47.956;9.222;2024-01-11T08:56:42;-4.20;30.40
4054;DHT22;2042;47.956;9.222;2024-01-11T08:59:08;-4.20;30.60
4054;DHT22;2042;47.956;9.222;2024-01-11T09:01:37;-4.10;30.80
4054;DHT22;2042;47.956;9.222;2024-01-11T09:04:03;-4.10;30.60
4054;DHT22;2042;47.956;9.222;2024-01-11T09:06:30;-4.00;30.90
4054;DHT22;2042;47.956;9.222;2024-01-11T09:08:55;-4.00;30.70
4054;DHT22;2042;47.956;9.222;2024-01-11T09:11:21;-4.10;29.90
4054;DHT22;2042;47.956;9.222;2024-01-11T09:13:47;-4.10;30.00
4054;DHT22;2042;47.956;9.222;2024-01-11T09:16:16;-4.10;30.40
4054;DHT22;2042;47.956;9.222;2024-01-11T09:18:43;-4.00;30.80
4054;DHT22;2042;47.956;9.222;2024-01-11T09:21:09;-3.80;32.10
4054;DHT22;2042;47.956;9.222;2024-01-11T09:23:35;-3.60;33.00
4054;DHT22;2042;47.956;9.222;2024-01-11T09:26:01;-3.40;33.30
4054;DHT22;2042;47.956;9.222;2024-01-11T09:28:26;-3.40;33.10
4054;DHT22;2042;47.956;9.222;2024-01-11T09:30:52;-3.30;33.10
4054;DHT22;2042;47.956;9.222;2024-01-11T09:33:18;-3.30;33.00
4054;DHT22;2042;47.956;9.222;2024-01-11T09:35:43;-3.30;32.10
4054;DHT22;2042;47.956;9.222;2024-01-11T09:38:09;-3.40;32.00
4054;DHT22;2042;47.956;9.222;2024-01-11T09:40:36;-3.30;33.10
4054;DHT22;2042;47.956;9.222;2024-01-11T09:43:03;-3.10;33.80
4054;DHT22;2042;47.956;9.222;2024-01-11T09:45:30;-3.00;33.90
4054;DHT22;2042;47.956;9.222;2024-01-11T09:47:55;-3.00;33.50
4054;DHT22;2042;47.956;9.222;2024-01-11T09:50:22;-3.00;33.20
4054;DHT22;2042;47.956;9.222;2024-01-11T09:52:49;-3.10;32.20
4054;DHT22;2042;47.956;9.222;2024-01-11T09:55:17;-3.10;32.80
4054;DHT22;2042;47.956;9.222;2024-01-11T09:57:47;-3.00;34.00
4054;DHT22;2042;47.956;9.222;2024-01-11T10:00:16;-2.90;33.60
4054;DHT22;2042;47.956;9.222;2024-01-11T10:02:44;-2.80;34.00
4054;DHT22;2042;47.956;9.222;2024-01-11T10:05:11;-2.70;34.10
4054;DHT22;2042;47.956;9.222;2024-01-11T10:07:39;-2.60;34.30
4054;DHT22;2042;47.956;9.222;2024-01-11T10:10:06;-2.70;33.60
4054;DHT22;2042;47.956;9.222;2024-01-11T10:12:37;-2.80;32.80
4054;DHT22;2042;47.956;9.222;2024-01-11T10:15:08;-2.80;32.20
4054;DHT22;2042;47.956;9.222;2024-01-11T10:17:36;-2.80;32.40
4054;DHT22;2042;47.956;9.222;2024-01-11T10:20:02;-2.70;32.60
4054;DHT22;2042;47.956;9.222;2024-01-11T10:22:28;-2.80;31.60
4054;DHT22;2042;47.956;9.222;2024-01-11T10:25:08;-2.70;32.50
4054;DHT22;2042;47.956;9.222;2024-01-11T10:27:36;-2.60;32.30
4054;DHT22;2042;47.956;9.222;2024-01-11T10:30:02;-2.60;32.20
4054;DHT22;2042;47.956;9.222;2024-01-11T10:32:28;-2.50;32.50
4054;DHT22;2042;47.956;9.222;2024-01-11T10:34:54;-2.40;32.80
4054;DHT22;2042;47.956;9.222;2024-01-11T10:37:21;-2.30;33.50
4054;DHT22;2042;47.956;9.222;2024-01-11T10:39:48;-2.00;34.50
4054;DHT22;2042;47.956;9.222;2024-01-11T10:42:20;-1.90;33.90
4054;DHT22;2042;47.956;9.222;2024-01-11T10:44:53;-1.80;33.80
4054;DHT22;2042;47.956;9.222;2024-01-11T10:47:21;-1.80;32.40
4054;DHT22;2042;47.956;9.222;2024-01-11T10:49:50;-1.80;31.80
4054;DHT22;2042;47.956;9.222;2024-01-11T10:52:22;-1.80;31.20
4054;DHT22;2042;47.956;9.222;2024-01-11T10:54:50;-1.80;31.10
4054;DHT22;2042;47.956;9.222;2024-01-11T10:57:17;-1.80;29.50
4054;DHT22;2042;47.956;9.222;2024-01-11T10:59:44;-1.90;28.90
4054;DHT22;2042;47.956;9.222;2024-01-11T11:02:11;-1.80;29.80
4054;DHT22;2042;47.956;9.222;2024-01-11T11:04:42;-1.70;30.00
4054;DHT22;2042;47.956;9.222;2024-01-11T11:07:08;-1.70;28.40
4054;DHT22;2042;47.956;9.222;2024-01-11T11:09:35;-1.70;28.20
4054;DHT22;2042;47.956;9.222;2024-01-11T11:12:01;-1.60;28.00
4054;DHT22;2042;47.956;9.222;2024-01-11T11:14:30;-1.60;27.00
4054;DHT22;2042;47.956;9.222;2024-01-11T11:16:58;-1.60;26.70
4054;DHT22;2042;47.956;9.222;2024-01-11T11:19:24;-1.60;26.20
4054;DHT22;2042;47.956;9.222;2024-01-11T11:21:49;-1.40;27.50
4054;DHT22;2042;47.956;9.222;2024-01-11T11:24:16;-1.40;26.90
4054;DHT22;2042;47.956;9.222;2024-01-11T11:26:42;-1.30;26.60
4054;DHT22;2042;47.956;9.222;2024-01-11T11:29:09;-1.10;26.60
4054;DHT22;2042;47.956;9.222;2024-01-11T11:31:41;-1.00;27.00
4054;DHT22;2042;47.956;9.222;2024-01-11T11:34:07;-0.80;25.50
4054;DHT22;2042;47.956;9.222;2024-01-11T11:36:33;-0.90;24.10
4054;DHT22;2042;47.956;9.222;2024-01-11T11:39:01;-0.90;22.90
4054;DHT22;2042;47.956;9.222;2024-01-11T11:41:27;-0.70;23.70
4054;DHT22;2042;47.956;9.222;2024-01-11T11:43:53;-0.60;23.60
4054;DHT22;2042;47.956;9.222;2024-01-11T11:46:19;-0.60;21.20
4054;DHT22;2042;47.956;9.222;2024-01-11T11:48:52;-0.60;19.80
4054;DHT22;2042;47.956;9.222;2024-01-11T11:51:21;-0.50;18.90
4054;DHT22;2042;47.956;9.222;2024-01-11T11:53:48;-0.50;18.20
4054;DHT22;2042;47.956;9.222;2024-01-11T11:56:15;-0.60;17.90
4054;DHT22;2042;47.956;9.222;2024-01-11T11:58:43;-0.50;16.60
4054;DHT22;2042;47.956;9.222;2024-01-11T12:01:09;-0.60;14.60
4054;DHT22;2042;47.956;9.222;2024-01-11T12:03:37;-0.70;13.40
4054;DHT22;2042;47.956;9.222;2024-01-11T12:06:05;-0.70;11.70
4054;DHT22;2042;47.956;9.222;2024-01-11T12:08:32;-0.90;9.30
4054;DHT22;2042;47.956;9.222;2024-01-11T12:10:58;-1.00;7.90
4054;DHT22;2042;47.956;9.222;2024-01-11T12:13:24;-1.20;6.10
4054;DHT22;2042;47.956;9.222;2024-01-11T12:15:50;-1.30;7.20
4054;DHT22;2042;47.956;9.222;2024-01-11T12:18:16;-1.30;8.40
4054;DHT22;2042;47.956;9.222;2024-01-11T12:20:41;-1.10;10.60
4054;DHT22;2042;47.956;9.222;2024-01-11T12:23:07;-0.80;13.60
4054;DHT22;2042;47.956;9.222;2024-01-11T12:25:33;-0.70;12.30
4054;DHT22;2042;47.956;9.222;2024-01-11T12:27:59;-0.50;13.10
4054;DHT22;2042;47.956;9.222;2024-01-11T12:30:26;-0.30;14.10
4054;DHT22;2042;47.956;9.222;2024-01-11T12:32:53;-0.20;12.70
4054;DHT22;2042;47.956;9.222;2024-01-11T12:35:19;-0.20;9.80
4054;DHT22;2042;47.956;9.222;2024-01-11T12:38:04;-0.20;7.20
4054;DHT22;2042;47.956;9.222;2024-01-11T12:40:33;-0.40;5.40
4054;DHT22;2042;47.956;9.222;2024-01-11T12:43:06;-0.50;5.80
4054;DHT22;2042;47.956;9.222;2024-01-11T12:45:34;-0.50;6.20
4054;DHT22;2042;47.956;9.222;2024-01-11T12:48:00;-0.60;2.70
4054;DHT22;2042;47.956;9.222;2024-01-11T12:50:30;-0.90;1.00
4054;DHT22;2042;47.956;9.222;2024-01-11T12:53:14;-1.10;1.00
4054;DHT22;2042;47.956;9.222;2024-01-11T12:55:47;-1.10;1.00
4054;DHT22;2042;47.956;9.222;2024-01-11T12:58:13;-1.10;1.00
4054;DHT22;2042;47.956;9.222;2024-01-11T13:00:39;-1.00;1.00
4054;DHT22;2042;47.956;9.222;2024-01-11T13:03:05;-0.90;1.90
4054;DHT22;2042;47.956;9.222;2024-01-11T13:05:32;-0.70;2.50
4054;DHT22;2042;47.956;9.222;2024-01-11T13:08:01;-0.60;2.30
4054;DHT22;2042;47.956;9.222;2024-01-11T13:10:28;-0.60;1.20
4054;DHT22;2042;47.956;9.222;2024-01-11T13:12:55;-0.40;3.30
4054;DHT22;2042;47.956;9.222;2024-01-11T13:15:21;-0.40;3.00
4054;DHT22;2042;47.956;9.222;2024-01-11T13:17:47;-0.40;2.60
4054;DHT22;2042;47.956;9.222;2024-01-11T13:20:14;-0.40;2.40
4054;DHT22;2042;47.956;9.222;2024-01-11T13:22:39;-0.60;1.00
4054;DHT22;2042;47.956;9.222;2024-01-11T13:25:05;-0.70;1.00
4054;DHT22;2042;47.956;9.222;2024-01-11T13:27:31;-0.60;1.00
4054;DHT22;2042;47.956;9.222;2024-01-11T13:29:57;-0.60;1.00
4054;DHT22;2042;47.956;9.222;2024-01-11T13:32:23;-0.70;1.00
4054;DHT22;2042;47.956;9.222;2024-01-11T13:34:49;-0.70;1.00
4054;DHT22;2042;47.956;9.222;2024-01-11T13:37:18;-0.70;1.00
4054;DHT22;2042;47.956;9.222;2024-01-11T13:39:44;-0.70;1.00
4054;DHT22;2042;47.956;9.222;2024-01-11T13:42:10;-0.50;1.00
4054;DHT22;2042;47.956;9.222;2024-01-11T13:44:36;-0.40;1.00
4054;DHT22;2042;47.956;9.222;2024-01-11T13:47:02;-0.40;1.00
4054;DHT22;2042;47.956;9.222;2024-01-11T13:49:28;-0.60;1.00
4054;DHT22;2042;47.956;9.222;2024-01-11T13:51:54;-0.80;1.00
4054;DHT22;2042;47.956;9.222;2024-01-11T13:54:19;-1.00;1.00
4054;DHT22;2042;47.956;9.222;2024-01-11T13:56:47;-1.20;1.00
4054;DHT22;2042;47.956;9.222;2024-01-11T13:59:13;-1.20;1.00
4054;DHT22;2042;47.956;9.222;2024-01-11T14:01:38;-1.10;1.00
4054;DHT22;2042;47.956;9.222;2024-01-11T14:04:04;-1.10;1.00
4054;DHT22;2042;47.956;9.222;2024-01-11T14:06:30;-1.00;1.00
4054;DHT22;2042;47.956;9.222;2024-01-11T14:08:55;-1.00;1.00
4054;DHT22;2042;47.956;9.222;2024-01-11T14:11:21;-1.10;1.00
4054;DHT22;2042;47.956;9.222;2024-01-11T14:13:47;-1.20;1.00
4054;DHT22;2042;47.956;9.222;2024-01-11T14:16:13;-1.50;1.00
4054;DHT22;2042;47.956;9.222;2024-01-11T14:18:41;-1.70;1.00
4054;DHT22;2042;47.956;9.222;2024-01-11T14:21:07;-1.80;1.00
4054;DHT22;2042;47.956;9.222;2024-01-11T14:23:34;-1.90;1.00
4054;DHT22;2042;47.956;9.222;2024-01-11T14:25:59;-2.20;1.00
4054;DHT22;2042;47.956;9.222;2024-01-11T14:28:25;-2.40;1.00
4054;DHT22;2042;47.956;9.222;2024-01-11T14:30:50;-2.50;1.00
4054;DHT22;2042;47.956;9.222;2024-01-11T14:33:16;-2.60;1.00
4054;DHT22;2042;47.956;9.222;2024-01-11T14:35:42;-2.70;1.00
4054;DHT22;2042;47.956;9.222;2024-01-11T14:38:08;-2.70;1.00
4054;DHT22;2042;47.956;9.222;2024-01-11T14:40:34;-2.70;1.00
4054;DHT22;2042;47.956;9.222;2024-01-11T14:42:59;-2.80;1.00
4054;DHT22;2042;47.956;9.222;2024-01-11T14:45:25;-2.80;1.00
4054;DHT22;2042;47.956;9.222;2024-01-11T14:47:52;-2.80;1.00
4054;DHT22;2042;47.956;9.222;2024-01-11T14:50:18;-2.80;1.00
4054;DHT22;2042;47.956;9.222;2024-01-11T14:52:43;-2.80;1.00
4054;DHT22;2042;47.956;9.222;2024-01-11T14:55:09;-2.80;1.00
4054;DHT22;2042;47.956;9.222;2024-01-11T14:57:36;-2.80;1.00
4054;DHT22;2042;47.956;9.222;2024-01-11T15:00:01;-2.80;1.00
4054;DHT22;2042;47.956;9.222;2024-01-11T15:02:27;-2.90;1.00
4054;DHT22;2042;47.956;9.222;2024-01-11T15:04:53;-2.90;1.00
4054;DHT22;2042;47.956;9.222;2024-01-11T15:07:18;-2.90;1.00
4054;DHT22;2042;47.956;9.222;2024-01-11T15:09:44;-3.00;1.00
4054;DHT22;2042;47.956;9.222;2024-01-11T15:12:10;-3.10;1.00
4054;DHT22;2042;47.956;9.222;2024-01-11T15:14:35;-3.20;1.00
4054;DHT22;2042;47.956;9.222;2024-01-11T15:17:01;-3.40;1.00
4054;DHT22;2042;47.956;9.222;2024-01-11T15:19:28;-3.60;1.00
4054;DHT22;2042;47.956;9.222;2024-01-11T15:21:54;-3.80;1.00
4054;DHT22;2042;47.956;9.222;2024-01-11T15:24:19;-4.00;1.00
4054;DHT22;2042;47.956;9.222;2024-01-11T15:26:48;-4.10;1.00
4054;DHT22;2042;47.956;9.222;2024-01-11T15:29:14;-4.20;1.00
4054;DHT22;2042;47.956;9.222;2024-01-11T15:31:40;-4.30;1.00
4054;DHT22;2042;47.956;9.222;2024-01-11T15:34:08;-4.40;1.00
4054;DHT22;2042;47.956;9.222;2024-01-11T15:36:33;-4.50;1.00
4054;DHT22;2042;47.956;9.222;2024-01-11T15:39:00;-4.60;1.00
4054;DHT22;2042;47.956;9.222;2024-01-11T15:41:26;-4.80;1.00
4054;DHT22;2042;47.956;9.222;2024-01-11T15:43:51;-4.90;1.00
4054;DHT22;2042;47.956;9.222;2024-01-11T15:46:17;-5.00;1.00
4054;DHT22;2042;47.956;9.222;2024-01-11T15:48:43;-5.10;1.00
4054;DHT22;2042;47.956;9.222;2024-01-11T15:51:08;-5.20;1.00
4054;DHT22;2042;47.956;9.222;2024-01-11T15:53:34;-5.20;1.00
4054;DHT22;2042;47.956;9.222;2024-01-11T15:56:00;-5.20;1.00
4054;DHT22;2042;47.956;9.222;2024-01-11T15:58:26;-5.30;1.00